Temp: 8.6°C   Baro: 995.1mb
  Wind: 2.0mph   Dir: SW (214°)
  Rain: 0.0mm (0.0mm/hr)
  Solar: 0W/m2  Hum: 88%
 
Bath Spa Weather Station Historical Data
Daily Summary for September 22, 2020 Units:  Both    English   Metric
Daily Weekly Monthly Yearly Custom
  High: Low: Average:
Temperature: 68.9 °F /  20.5 °C 52.2 °F /  11.2 °C 59.4 °F /  15.2 °C
Dew Point: 60.8 °F /  16 °C 50.2 °F /  10.1 °C 55.9 °F /  13.3 °C
Humidity: 92% 68% 86%
Wind Speed: 8.6mph /  13.8km/h - 1.8mph /  2.9km/h
Wind Gust: 17mph /  27.4km/h - -
Wind- - West
Pressure: 29.97 in /  1014.8 hPa 29.64 in /  1003.6 hPa -
Precipitation: 0.01 in /  0.25 mm    
Historical Graphs
 
 
Tabular Data for September 22, 2020
Time Temperature Dew Point Pressure Wind Wind Speed Wind Gust Humidity Rainfall Rate (Hourly) solar
00:04 58.6 °F /  14.8 °C 55.6 °F /  13.1 °C 29.97in /  1014.8hPa Calm     87% 0.00in /  0mm 0 W/m2
00:09 58.5 °F /  14.7 °C 55.5 °F /  13.1 °C 29.97in /  1014.8hPa Calm     87% 0.00in /  0mm 0 W/m2
00:14 58.3 °F /  14.6 °C 55.5 °F /  13.1 °C 29.96in /  1014.4hPa Calm     87.6% 0.00in /  0mm 0 W/m2
00:19 58.2 °F /  14.6 °C 55.4 °F /  13 °C 29.96in /  1014.4hPa Calm     87.8% 0.00in /  0mm 0 W/m2
00:24 58 °F /  14.4 °C 55.3 °F /  12.9 °C 29.96in /  1014.4hPa Calm     88% 0.00in /  0mm 0 W/m2
00:29 57.8 °F /  14.3 °C 55.1 °F /  12.8 °C 29.96in /  1014.4hPa Calm     88% 0.00in /  0mm 0 W/m2
00:34 57.7 °F /  14.3 °C 55 °F /  12.8 °C 29.96in /  1014.4hPa Calm     88% 0.00in /  0mm 0 W/m2
00:39 57.7 °F /  14.3 °C 55 °F /  12.8 °C 29.96in /  1014.4hPa Calm     88% 0.00in /  0mm 0 W/m2
00:44 57.7 °F /  14.3 °C 55 °F /  12.8 °C 29.96in /  1014.4hPa Calm     88% 0.00in /  0mm 0 W/m2
00:49 57.7 °F /  14.3 °C 55 °F /  12.8 °C 29.96in /  1014.4hPa Calm     88% 0.00in /  0mm 0 W/m2
00:54 57.6 °F /  14.2 °C 54.9 °F /  12.7 °C 29.96in /  1014.4hPa Calm     88% 0.00in /  0mm 0 W/m2
00:59 57.4 °F /  14.1 °C 54.7 °F /  12.6 °C 29.96in /  1014.4hPa Calm     88% 0.00in /  0mm 0 W/m2
01:04 57 °F /  13.9 °C 54.3 °F /  12.4 °C 29.95in /  1014.1hPa Calm     88% 0.00in /  0mm 0 W/m2
01:09 56.9 °F /  13.8 °C 54.2 °F /  12.3 °C 29.95in /  1014.1hPa Calm     88% 0.00in /  0mm 0 W/m2
01:14 56.8 °F /  13.8 °C 54.1 °F /  12.3 °C 29.95in /  1014.1hPa Calm     88% 0.00in /  0mm 0 W/m2
01:19 56.8 °F /  13.8 °C 54.1 °F /  12.3 °C 29.95in /  1014.1hPa Calm     88% 0.00in /  0mm 0 W/m2
01:24 56.6 °F /  13.7 °C 53.9 °F /  12.2 °C 29.95in /  1014.1hPa Calm     88% 0.00in /  0mm 0 W/m2
01:29 56.4 °F /  13.6 °C 53.7 °F /  12.1 °C 29.95in /  1014.1hPa Calm     88% 0.00in /  0mm 0 W/m2
01:39 56 °F /  13.3 °C 53.3 °F /  11.8 °C 29.94in /  1013.8hPa Calm     88% 0.00in /  0mm 0 W/m2
01:44 55.8 °F /  13.2 °C 53.1 °F /  11.7 °C 29.94in /  1013.8hPa Calm     88% 0.00in /  0mm 0 W/m2
01:49 55.8 °F /  13.2 °C 53.1 °F /  11.7 °C 29.94in /  1013.8hPa Calm     88% 0.00in /  0mm 0 W/m2
01:54 55.8 °F /  13.2 °C 53.1 °F /  11.7 °C 29.94in /  1013.8hPa Calm     88% 0.00in /  0mm 0 W/m2
01:59 55.8 °F /  13.2 °C 53.1 °F /  11.7 °C 29.94in /  1013.8hPa Calm     88% 0.00in /  0mm 0 W/m2
02:04 55.8 °F /  13.2 °C 53.1 °F /  11.7 °C 29.94in /  1013.8hPa Calm     88% 0.00in /  0mm 0 W/m2
02:09 55.8 °F /  13.2 °C 53.1 °F /  11.7 °C 29.94in /  1013.8hPa Calm     88% 0.00in /  0mm 0 W/m2
02:14 55.8 °F /  13.2 °C 53.1 °F /  11.7 °C 29.93in /  1013.4hPa Calm     88% 0.00in /  0mm 0 W/m2
02:19 55.6 °F /  13.1 °C 52.9 °F /  11.6 °C 29.93in /  1013.4hPa Calm     88% 0.00in /  0mm 0 W/m2
02:24 55.5 °F /  13.1 °C 52.9 °F /  11.6 °C 29.93in /  1013.4hPa Calm     88% 0.00in /  0mm 0 W/m2
02:29 55.3 °F /  12.9 °C 52.8 °F /  11.6 °C 29.93in /  1013.4hPa Calm     88% 0.00in /  0mm 0 W/m2
02:34 55.2 °F /  12.9 °C 52.7 °F /  11.5 °C 29.93in /  1013.4hPa Calm     88% 0.00in /  0mm 0 W/m2
02:39 55 °F /  12.8 °C 52.5 °F /  11.4 °C 29.93in /  1013.4hPa Calm     88% 0.00in /  0mm 0 W/m2
02:44 55 °F /  12.8 °C 52.5 °F /  11.4 °C 29.93in /  1013.4hPa Calm     88% 0.00in /  0mm 0 W/m2
02:49 55 °F /  12.8 °C 52.5 °F /  11.4 °C 29.92in /  1013.1hPa Calm     88% 0.00in /  0mm 0 W/m2
02:54 54.9 °F /  12.7 °C 52.3 °F /  11.3 °C 29.92in /  1013.1hPa Calm     88% 0.00in /  0mm 0 W/m2
02:59 54.9 °F /  12.7 °C 52.3 °F /  11.3 °C 29.92in /  1013.1hPa Calm     88% 0.00in /  0mm 0 W/m2
03:04 54.9 °F /  12.7 °C 52.3 °F /  11.3 °C 29.92in /  1013.1hPa Calm     88% 0.00in /  0mm 0 W/m2
03:09 54.9 °F /  12.7 °C 52.3 °F /  11.3 °C 29.92in /  1013.1hPa Calm     88% 0.00in /  0mm 0 W/m2
03:14 54.9 °F /  12.7 °C 52.3 °F /  11.3 °C 29.92in /  1013.1hPa Calm     88% 0.00in /  0mm 0 W/m2
03:19 54.8 °F /  12.7 °C 52.2 °F /  11.2 °C 29.92in /  1013.1hPa Calm     88% 0.00in /  0mm 0 W/m2
03:24 54.7 °F /  12.6 °C 52.2 °F /  11.2 °C 29.91in /  1012.8hPa Calm     88% 0.00in /  0mm 0 W/m2
03:29 54.6 °F /  12.6 °C 52.1 °F /  11.2 °C 29.91in /  1012.8hPa Calm     88% 0.00in /  0mm 0 W/m2
03:34 54.4 °F /  12.4 °C 51.9 °F /  11.1 °C 29.91in /  1012.8hPa Calm     88% 0.00in /  0mm 0 W/m2
03:39 54.3 °F /  12.4 °C 51.8 °F /  11 °C 29.91in /  1012.8hPa Calm     88% 0.00in /  0mm 0 W/m2
03:44 54.1 °F /  12.3 °C 51.6 °F /  10.9 °C 29.90in /  1012.4hPa Calm     88% 0.00in /  0mm 0 W/m2
03:49 54.1 °F /  12.3 °C 51.5 °F /  10.8 °C 29.90in /  1012.4hPa Calm     88% 0.00in /  0mm 0 W/m2
03:54 54 °F /  12.2 °C 51.6 °F /  10.9 °C 29.90in /  1012.4hPa Calm     88.6% 0.00in /  0mm 0 W/m2
03:59 54 °F /  12.2 °C 51.6 °F /  10.9 °C 29.90in /  1012.4hPa Calm     89% 0.00in /  0mm 0 W/m2
04:04 54 °F /  12.2 °C 51.7 °F /  10.9 °C 29.90in /  1012.4hPa Calm     89% 0.00in /  0mm 0 W/m2
04:09 54 °F /  12.2 °C 51.6 °F /  10.9 °C 29.89in /  1012.1hPa Calm     89% 0.00in /  0mm 0 W/m2
04:14 54 °F /  12.2 °C 51.5 °F /  10.8 °C 29.89in /  1012.1hPa Calm     88.6% 0.00in /  0mm 0 W/m2
04:19 54 °F /  12.2 °C 51.4 °F /  10.8 °C 29.89in /  1012.1hPa Calm     88% 0.00in /  0mm 0 W/m2
04:24 53.9 °F /  12.2 °C 51.4 °F /  10.8 °C 29.89in /  1012.1hPa Calm     88% 0.00in /  0mm 0 W/m2
04:29 53.8 °F /  12.1 °C 51.3 °F /  10.7 °C 29.89in /  1012.1hPa Calm     88% 0.00in /  0mm 0 W/m2
04:34 53.7 °F /  12.1 °C 51.3 °F /  10.7 °C 29.89in /  1012.1hPa Calm     88.4% 0.00in /  0mm 0 W/m2
04:39 53.6 °F /  12 °C 51.3 °F /  10.7 °C 29.89in /  1012.1hPa Calm     89% 0.00in /  0mm 0 W/m2
04:44 53.5 °F /  11.9 °C 51.2 °F /  10.7 °C 29.89in /  1012.1hPa Calm     89% 0.00in /  0mm 0 W/m2
04:49 53.4 °F /  11.9 °C 51.1 °F /  10.6 °C 29.89in /  1012.1hPa Calm     89% 0.00in /  0mm 0 W/m2
04:54 53.4 °F /  11.9 °C 51.1 °F /  10.6 °C 29.89in /  1012.1hPa Calm     89% 0.00in /  0mm 0 W/m2
04:59 53.4 °F /  11.9 °C 51.1 °F /  10.6 °C 29.89in /  1012.1hPa Calm     89% 0.00in /  0mm 0 W/m2
05:04 53.3 °F /  11.8 °C 51 °F /  10.6 °C 29.88in /  1011.7hPa Calm     89% 0.00in /  0mm 0 W/m2
05:09 53.2 °F /  11.8 °C 50.9 °F /  10.5 °C 29.88in /  1011.7hPa Calm     89% 0.00in /  0mm 0 W/m2
05:14 53.1 °F /  11.7 °C 50.8 °F /  10.4 °C 29.88in /  1011.7hPa Calm     89% 0.00in /  0mm 0 W/m2
05:19 53.1 °F /  11.7 °C 50.7 °F /  10.4 °C 29.88in /  1011.7hPa Calm     89% 0.00in /  0mm 0 W/m2
05:24 52.9 °F /  11.6 °C 50.5 °F /  10.3 °C 29.88in /  1011.7hPa Calm     89% 0.00in /  0mm 0 W/m2
05:29 52.9 °F /  11.6 °C 50.5 °F /  10.3 °C 29.88in /  1011.7hPa Calm     89% 0.00in /  0mm 0 W/m2
05:34 52.9 °F /  11.6 °C 50.5 °F /  10.3 °C 29.88in /  1011.7hPa Calm     89% 0.00in /  0mm 0 W/m2
05:39 52.9 °F /  11.6 °C 50.5 °F /  10.3 °C 29.88in /  1011.7hPa Calm     89% 0.00in /  0mm 0 W/m2
05:44 52.9 °F /  11.6 °C 50.5 °F /  10.3 °C 29.88in /  1011.7hPa Calm     89% 0.00in /  0mm 0 W/m2
05:49 52.7 °F /  11.5 °C 50.7 °F /  10.4 °C 29.88in /  1011.7hPa Calm     89.8% 0.00in /  0mm 0 W/m2
05:54 52.7 °F /  11.5 °C 50.7 °F /  10.4 °C 29.87in /  1011.4hPa Calm     90% 0.00in /  0mm 0 W/m2
05:59 52.7 °F /  11.5 °C 50.5 °F /  10.3 °C 29.87in /  1011.4hPa Calm     89.4% 0.00in /  0mm 0 W/m2
06:04 52.6 °F /  11.4 °C 50.3 °F /  10.2 °C 29.87in /  1011.4hPa Calm     89% 0.00in /  0mm 0 W/m2
06:09 52.5 °F /  11.4 °C 50.3 °F /  10.2 °C 29.87in /  1011.4hPa Calm     89.4% 0.00in /  0mm 0 W/m2
06:14 52.4 °F /  11.3 °C 50.5 °F /  10.3 °C 29.87in /  1011.4hPa Calm     90% 0.00in /  0mm 0 W/m2
06:19 52.3 °F /  11.3 °C 50.4 °F /  10.2 °C 29.87in /  1011.4hPa Calm     90% 0.00in /  0mm 0 W/m2
06:24 52.3 °F /  11.3 °C 50.4 °F /  10.2 °C 29.87in /  1011.4hPa Calm     90% 0.00in /  0mm 0 W/m2
06:29 52.3 °F /  11.3 °C 50.4 °F /  10.2 °C 29.87in /  1011.4hPa Calm     90% 0.00in /  0mm 0 W/m2
06:34 52.3 °F /  11.3 °C 50.4 °F /  10.2 °C 29.87in /  1011.4hPa Calm     90% 0.00in /  0mm 0 W/m2
06:39 52.3 °F /  11.3 °C 50.4 °F /  10.2 °C 29.87in /  1011.4hPa Calm     90% 0.00in /  0mm 0 W/m2
06:44 52.3 °F /  11.3 °C 50.4 °F /  10.2 °C 29.86in /  1011.1hPa Calm     90% 0.00in /  0mm 0 W/m2
06:49 52.3 °F /  11.3 °C 50.3 °F /  10.2 °C 29.86in /  1011.1hPa Calm     90% 0.00in /  0mm 0 W/m2
06:54 52.2 °F /  11.2 °C 50.2 °F /  10.1 °C 29.86in /  1011.1hPa Calm     90% 0.00in /  0mm 0 W/m2
06:59 52.2 °F /  11.2 °C 50.2 °F /  10.1 °C 29.86in /  1011.1hPa Calm     90% 0.00in /  0mm 0 W/m2
07:04 52.2 °F /  11.2 °C 50.2 °F /  10.1 °C 29.86in /  1011.1hPa Calm     90% 0.00in /  0mm 7 W/m2
07:09 52.2 °F /  11.2 °C 50.4 °F /  10.2 °C 29.86in /  1011.1hPa Calm     90.4% 0.00in /  0mm 9 W/m2
07:14 52.3 °F /  11.3 °C 50.7 °F /  10.4 °C 29.86in /  1011.1hPa Calm     91% 0.00in /  0mm 12 W/m2
07:19 52.3 °F /  11.3 °C 50.7 °F /  10.4 °C 29.86in /  1011.1hPa Calm     91% 0.00in /  0mm 16 W/m2
07:24 52.3 °F /  11.3 °C 50.7 °F /  10.4 °C 29.86in /  1011.1hPa Calm     91% 0.00in /  0mm 19 W/m2
07:29 52.3 °F /  11.3 °C 50.7 °F /  10.4 °C 29.86in /  1011.1hPa Calm     91% 0.00in /  0mm 21 W/m2
07:34 52.5 °F /  11.4 °C 50.9 °F /  10.5 °C 29.86in /  1011.1hPa Calm     91% 0.00in /  0mm 25 W/m2
07:39 52.7 °F /  11.5 °C 51.1 °F /  10.6 °C 29.86in /  1011.1hPa Calm     91% 0.00in /  0mm 26 W/m2
07:44 53 °F /  11.7 °C 51.3 °F /  10.7 °C 29.86in /  1011.1hPa Calm     91% 0.00in /  0mm 30 W/m2
07:49 53.1 °F /  11.7 °C 51.4 °F /  10.8 °C 29.85in /  1010.7hPa Calm     91% 0.00in /  0mm 32 W/m2
07:54 53.3 °F /  11.8 °C 51.7 °F /  10.9 °C 29.85in /  1010.7hPa Calm     91% 0.00in /  0mm 35 W/m2
07:59 53.7 °F /  12.1 °C 51.8 °F /  11 °C 29.85in /  1010.7hPa Calm     90.2% 0.00in /  0mm 37 W/m2
08:04 54 °F /  12.2 °C 52 °F /  11.1 °C 29.85in /  1010.7hPa Calm     90% 0.00in /  0mm 40 W/m2
08:09 54.3 °F /  12.4 °C 52.3 °F /  11.3 °C 29.85in /  1010.7hPa Calm     90% 0.00in /  0mm 42 W/m2
08:14 54.8 °F /  12.7 °C 52.5 °F /  11.4 °C 29.85in /  1010.7hPa Calm     89.2% 0.00in /  0mm 47 W/m2
08:19 55.2 °F /  12.9 °C 52.8 °F /  11.6 °C 29.85in /  1010.7hPa Calm     88.4% 0.00in /  0mm 56 W/m2
08:24 55.4 °F /  13 °C 52.6 °F /  11.4 °C 29.85in /  1010.7hPa Calm   1mph /  1.6km/h 87.4% 0.00in /  0mm 65 W/m2
08:29 56 °F /  13.3 °C 53.1 °F /  11.7 °C 29.85in /  1010.7hPa Calm     86.8% 0.00in /  0mm 76 W/m2
08:34 56.2 °F /  13.4 °C 52.9 °F /  11.6 °C 29.85in /  1010.7hPa Calm     85.8% 0.00in /  0mm 90 W/m2
08:39 56.1 °F /  13.4 °C 52.5 °F /  11.4 °C 29.85in /  1010.7hPa Calm     85% 0.00in /  0mm 104 W/m2
08:43 56.4 °F /  13.6 °C 52.8 °F /  11.6 °C 29.85in /  1010.7hPa Calm     85% 0.00in /  0mm 113 W/m2
08:49 56.9 °F /  13.8 °C 53.3 °F /  11.8 °C 29.85in /  1010.7hPa Calm     84.8% 0.00in /  0mm 127 W/m2
08:54 57.3 °F /  14.1 °C 53.3 °F /  11.8 °C 29.85in /  1010.7hPa Calm     83.8% 0.00in /  0mm 141 W/m2
08:59 57.9 °F /  14.4 °C 53.7 °F /  12.1 °C 29.84in /  1010.4hPa NW 0.4mph /  0.6km/h 2mph /  3.2km/h 83.2% 0.00in /  0mm 155 W/m2
09:04 58 °F /  14.4 °C 53.6 °F /  12 °C 29.84in /  1010.4hPa NW 0.5mph /  0.8km/h 3mph /  4.8km/h 82.6% 0.00in /  0mm 171 W/m2
09:09 58.5 °F /  14.7 °C 53.9 °F /  12.2 °C 29.84in /  1010.4hPa NW 0.8mph /  1.3km/h 3mph /  4.8km/h 82% 0.00in /  0mm 185 W/m2
09:14 59.7 °F /  15.4 °C 54.8 °F /  12.7 °C 29.85in /  1010.7hPa NW 0.2mph /  0.3km/h 1mph /  1.6km/h 81.2% 0.00in /  0mm 199 W/m2
09:19 60.7 °F /  15.9 °C 54.9 °F /  12.7 °C 29.84in /  1010.4hPa NW 0.2mph /  0.3km/h 2mph /  3.2km/h 78.8% 0.00in /  0mm 213 W/m2
09:24 61.1 °F /  16.2 °C 55 °F /  12.8 °C 29.85in /  1010.7hPa NW 0.4mph /  0.6km/h 2mph /  3.2km/h 78% 0.00in /  0mm 229 W/m2
09:29 61.9 °F /  16.6 °C 55.1 °F /  12.8 °C 29.85in /  1010.7hPa Calm     76.4% 0.00in /  0mm 243 W/m2
09:34 61.9 °F /  16.6 °C 54.6 °F /  12.6 °C 29.85in /  1010.7hPa NW 0.5mph /  0.8km/h 2mph /  3.2km/h 74.8% 0.00in /  0mm 257 W/m2
09:39 61.6 °F /  16.4 °C 54.3 °F /  12.4 °C 29.85in /  1010.7hPa WSW 2.8mph /  4.5km/h 7mph /  11.3km/h 74.8% 0.00in /  0mm 269 W/m2
09:44 61.4 °F /  16.3 °C 54.1 °F /  12.3 °C 29.84in /  1010.4hPa SW 3.1mph /  5km/h 8mph /  12.9km/h 74.8% 0.00in /  0mm 292 W/m2
09:49 61.7 °F /  16.5 °C 54.5 °F /  12.5 °C 29.84in /  1010.4hPa West 1.3mph /  2.1km/h 4mph /  6.4km/h 75% 0.00in /  0mm 295 W/m2
09:54 62.1 °F /  16.7 °C 54.9 °F /  12.7 °C 29.84in /  1010.4hPa West 2.4mph /  3.9km/h 5mph /  8km/h 75% 0.00in /  0mm 309 W/m2
09:59 62.3 °F /  16.8 °C 55.1 °F /  12.8 °C 29.84in /  1010.4hPa West 2.5mph /  4km/h 7mph /  11.3km/h 74.8% 0.00in /  0mm 323 W/m2
10:04 62.4 °F /  16.9 °C 55.3 °F /  12.9 °C 29.84in /  1010.4hPa West 3.1mph /  5km/h 5mph /  8km/h 75.4% 0.00in /  0mm 336 W/m2
10:09 62.7 °F /  17.1 °C 55.8 °F /  13.2 °C 29.84in /  1010.4hPa West 6.4mph /  10.3km/h 10mph /  16.1km/h 76% 0.00in /  0mm 350 W/m2
10:14 62.7 °F /  17.1 °C 55.7 °F /  13.2 °C 29.84in /  1010.4hPa WSW 3.7mph /  6km/h 8mph /  12.9km/h 75.6% 0.00in /  0mm 359 W/m2
10:19 62.5 °F /  16.9 °C 55.6 °F /  13.1 °C 29.84in /  1010.4hPa WSW 3.5mph /  5.6km/h 7mph /  11.3km/h 75.8% 0.00in /  0mm 362 W/m2
10:24 63.1 °F /  17.3 °C 56.4 °F /  13.6 °C 29.83in /  1010hPa WSW 3.2mph /  5.1km/h 6mph /  9.7km/h 76.6% 0.00in /  0mm 380 W/m2
10:29 63.7 °F /  17.6 °C 56.7 °F /  13.7 °C 29.83in /  1010hPa SW 2.1mph /  3.4km/h 6mph /  9.7km/h 75.6% 0.00in /  0mm 387 W/m2
10:34 64.2 °F /  17.9 °C 56.7 °F /  13.7 °C 29.83in /  1010hPa SW 0.8mph /  1.3km/h 5mph /  8km/h 74% 0.00in /  0mm 399 W/m2
10:39 64.7 °F /  18.2 °C 56.9 °F /  13.8 °C 29.83in /  1010hPa WSW 2.9mph /  4.7km/h 6mph /  9.7km/h 73.6% 0.00in /  0mm 413 W/m2
10:44 64.1 °F /  17.8 °C 56.6 °F /  13.7 °C 29.83in /  1010hPa SW 2.3mph /  3.7km/h 7mph /  11.3km/h 74% 0.00in /  0mm 427 W/m2
10:49 64.6 °F /  18.1 °C 56.8 °F /  13.8 °C 29.83in /  1010hPa SSW 4.2mph /  6.8km/h 10mph /  16.1km/h 73.4% 0.00in /  0mm 441 W/m2
10:54 65 °F /  18.3 °C 56.5 °F /  13.6 °C 29.83in /  1010hPa SSW 4mph /  6.4km/h 9mph /  14.5km/h 71.8% 0.00in /  0mm 446 W/m2
10:59 65.5 °F /  18.6 °C 55.8 °F /  13.2 °C 29.83in /  1010hPa SW 4.9mph /  7.9km/h 8mph /  12.9km/h 68.8% 0.00in /  0mm 452 W/m2
11:04 65.6 °F /  18.7 °C 55.6 °F /  13.1 °C 29.83in /  1010hPa SW 2.9mph /  4.7km/h 8mph /  12.9km/h 68% 0.00in /  0mm 454 W/m2
11:09 66 °F /  18.9 °C 56.4 °F /  13.6 °C 29.82in /  1009.7hPa SW 4.5mph /  7.2km/h 9mph /  14.5km/h 69% 0.00in /  0mm 432 W/m2
11:14 65.3 °F /  18.5 °C 56.7 °F /  13.7 °C 29.82in /  1009.7hPa SW 4.4mph /  7.1km/h 9mph /  14.5km/h 71.6% 0.00in /  0mm 441 W/m2
11:19 65.5 °F /  18.6 °C 57.5 °F /  14.2 °C 29.82in /  1009.7hPa WSW 6.1mph /  9.8km/h 8mph /  12.9km/h 73% 0.00in /  0mm 475 W/m2
11:24 65.9 °F /  18.8 °C 58.2 °F /  14.6 °C 29.81in /  1009.4hPa WSW 3.6mph /  5.8km/h 7mph /  11.3km/h 74% 0.00in /  0mm 478 W/m2
11:29 66.6 °F /  19.2 °C 59.1 °F /  15.1 °C 29.81in /  1009.4hPa WSW 3.3mph /  5.3km/h 6mph /  9.7km/h 74.8% 0.00in /  0mm 526 W/m2
11:34 67.5 °F /  19.7 °C 59.7 °F /  15.4 °C 29.81in /  1009.4hPa WSW 3.7mph /  6km/h 7mph /  11.3km/h 74% 0.00in /  0mm 594 W/m2
11:39 68 °F /  20 °C 60.1 °F /  15.6 °C 29.81in /  1009.4hPa WSW 3.3mph /  5.3km/h 8mph /  12.9km/h 73.6% 0.00in /  0mm 656 W/m2
11:44 68.9 °F /  20.5 °C 60.8 °F /  16 °C 29.80in /  1009hPa SSW 4mph /  6.4km/h 10mph /  16.1km/h 73% 0.00in /  0mm 622 W/m2
11:49 68.9 °F /  20.5 °C 60.4 °F /  15.8 °C 29.80in /  1009hPa SW 5.3mph /  8.5km/h 10mph /  16.1km/h 72% 0.00in /  0mm 615 W/m2
11:54 68.5 °F /  20.3 °C 60.1 °F /  15.6 °C 29.80in /  1009hPa SSW 7.5mph /  12.1km/h 13mph /  20.9km/h 72.2% 0.00in /  0mm 615 W/m2
11:59 68.3 °F /  20.2 °C 60 °F /  15.6 °C 29.80in /  1009hPa SSW 4.4mph /  7.1km/h 10mph /  16.1km/h 72.6% 0.00in /  0mm 656 W/m2
12:04 68.1 °F /  20.1 °C 59.7 °F /  15.4 °C 29.80in /  1009hPa SW 8.6mph /  13.8km/h 17mph /  27.4km/h 72% 0.00in /  0mm 663 W/m2
12:09 67 °F /  19.4 °C 59.2 °F /  15.1 °C 29.80in /  1009hPa SW 5.8mph /  9.3km/h 17mph /  27.4km/h 73.8% 0.00in /  0mm 346 W/m2
12:14 66.7 °F /  19.3 °C 59.2 °F /  15.1 °C 29.80in /  1009hPa SW 8.4mph /  13.5km/h 16mph /  25.7km/h 74.6% 0.00in /  0mm 308 W/m2
12:19 66.2 °F /  19 °C 59 °F /  15 °C 29.80in /  1009hPa WSW 6.6mph /  10.6km/h 13mph /  20.9km/h 75.4% 0.00in /  0mm 200 W/m2
12:24 66 °F /  18.9 °C 59.2 °F /  15.1 °C 29.79in /  1008.7hPa SSW 6.2mph /  10km/h 13mph /  20.9km/h 76% 0.00in /  0mm 195 W/m2
12:29 66 °F /  18.9 °C 59.2 °F /  15.1 °C 29.79in /  1008.7hPa SW 4.3mph /  6.9km/h 13mph /  20.9km/h 76% 0.00in /  0mm 167 W/m2
12:34 65.8 °F /  18.8 °C 59.3 °F /  15.2 °C 29.79in /  1008.7hPa SW 5.4mph /  8.7km/h 16mph /  25.7km/h 76.6% 0.00in /  0mm 162 W/m2
12:39 65.4 °F /  18.6 °C 58.8 °F /  14.9 °C 29.79in /  1008.7hPa SW 7mph /  11.3km/h 16mph /  25.7km/h 76.8% 0.00in /  0mm 250 W/m2
12:44 65 °F /  18.3 °C 58.6 °F /  14.8 °C 29.79in /  1008.7hPa SSW 6.1mph /  9.8km/h 14mph /  22.5km/h 77% 0.00in /  0mm 264 W/m2
12:49 65.1 °F /  18.4 °C 58.6 °F /  14.8 °C 29.79in /  1008.7hPa SSW 7mph /  11.3km/h 14mph /  22.5km/h 77% 0.00in /  0mm 230 W/m2
12:54 65.1 °F /  18.4 °C 58.6 °F /  14.8 °C 29.79in /  1008.7hPa SW 5.7mph /  9.2km/h 13mph /  20.9km/h 77% 0.00in /  0mm 165 W/m2
12:59 64.9 °F /  18.3 °C 58.8 °F /  14.9 °C 29.79in /  1008.7hPa SSW 7mph /  11.3km/h 17mph /  27.4km/h 78% 0.00in /  0mm 142 W/m2
13:04 64.9 °F /  18.3 °C 58.8 °F /  14.9 °C 29.79in /  1008.7hPa SW 4.6mph /  7.4km/h 12mph /  19.3km/h 78% 0.00in /  0mm 134 W/m2
13:09 64.9 °F /  18.3 °C 58.8 °F /  14.9 °C 29.79in /  1008.7hPa SW 3.7mph /  6km/h 9mph /  14.5km/h 78% 0.00in /  0mm 128 W/m2
13:14 64.7 °F /  18.2 °C 58.7 °F /  14.8 °C 29.79in /  1008.7hPa SSW 7.5mph /  12.1km/h 15mph /  24.1km/h 78.2% 0.00in /  0mm 160 W/m2
13:19 64.6 °F /  18.1 °C 58.8 °F /  14.9 °C 29.79in /  1008.7hPa SSW 6.4mph /  10.3km/h 14mph /  22.5km/h 79% 0.00in /  0mm 118 W/m2
13:24 64.6 °F /  18.1 °C 59 °F /  15 °C 29.79in /  1008.7hPa WSW 5.8mph /  9.3km/h 10mph /  16.1km/h 79.6% 0.00in /  0mm 91 W/m2
13:29 64.4 °F /  18 °C 59 °F /  15 °C 29.78in /  1008.4hPa WSW 5.9mph /  9.5km/h 14mph /  22.5km/h 80% 0.00in /  0mm 84 W/m2
13:34 64.2 °F /  17.9 °C 58.8 °F /  14.9 °C 29.78in /  1008.4hPa SW 6.4mph /  10.3km/h 14mph /  22.5km/h 80% 0.00in /  0mm 79 W/m2
13:39 64.1 °F /  17.8 °C 58.7 °F /  14.8 °C 29.78in /  1008.4hPa WSW 6.8mph /  10.9km/h 12mph /  19.3km/h 80% 0.00in /  0mm 72 W/m2
13:44 64 °F /  17.8 °C 58.9 °F /  14.9 °C 29.78in /  1008.4hPa SW 6.4mph /  10.3km/h 13mph /  20.9km/h 80.8% 0.00in /  0mm 95 W/m2
13:49 64 °F /  17.8 °C 59 °F /  15 °C 29.78in /  1008.4hPa WSW 6mph /  9.7km/h 14mph /  22.5km/h 81% 0.00in /  0mm 70 W/m2
13:54 63.7 °F /  17.6 °C 58.7 °F /  14.8 °C 29.78in /  1008.4hPa West 7.8mph /  12.6km/h 15mph /  24.1km/h 81.2% 0.00in /  0mm 60 W/m2
13:59 63.2 °F /  17.3 °C 58.6 °F /  14.8 °C 29.78in /  1008.4hPa SW 6.9mph /  11.1km/h 16mph /  25.7km/h 82% 0.00in /  0mm 93 W/m2
14:04 63.1 °F /  17.3 °C 58.8 °F /  14.9 °C 29.78in /  1008.4hPa South 5.1mph /  8.2km/h 13mph /  20.9km/h 83% 0.00in /  0mm 146 W/m2
14:09 63.1 °F /  17.3 °C 58.8 °F /  14.9 °C 29.78in /  1008.4hPa SW 7.2mph /  11.6km/h 13mph /  20.9km/h 83% 0.00in /  0mm 142 W/m2
14:14 63.1 °F /  17.3 °C 58.8 °F /  14.9 °C 29.78in /  1008.4hPa SW 5.2mph /  8.4km/h 13mph /  20.9km/h 83% 0.00in /  0mm 146 W/m2
14:19 63.1 °F /  17.3 °C 58.8 °F /  14.9 °C 29.77in /  1008hPa SW 5.7mph /  9.2km/h 11mph /  17.7km/h 83% 0.00in /  0mm 125 W/m2
14:24 63.2 °F /  17.3 °C 58.9 °F /  14.9 °C 29.77in /  1008hPa SSW 4.4mph /  7.1km/h 10mph /  16.1km/h 83% 0.00in /  0mm 271 W/m2
14:29 63.3 °F /  17.4 °C 59 °F /  15 °C 29.77in /  1008hPa SSW 5.4mph /  8.7km/h 12mph /  19.3km/h 83% 0.00in /  0mm 362 W/m2
14:34 63.6 °F /  17.6 °C 59.3 °F /  15.2 °C 29.77in /  1008hPa SSW 5.4mph /  8.7km/h 14mph /  22.5km/h 83% 0.00in /  0mm 390 W/m2
14:39 63.8 °F /  17.7 °C 59.1 °F /  15.1 °C 29.76in /  1007.7hPa SW 3.6mph /  5.8km/h 14mph /  22.5km/h 82% 0.00in /  0mm 396 W/m2
14:44 64.1 °F /  17.8 °C 59.4 °F /  15.2 °C 29.76in /  1007.7hPa SW 6.3mph /  10.1km/h 12mph /  19.3km/h 81.8% 0.00in /  0mm 181 W/m2
14:49 64.1 °F /  17.8 °C 59.1 °F /  15.1 °C 29.76in /  1007.7hPa WSW 5.2mph /  8.4km/h 13mph /  20.9km/h 81% 0.00in /  0mm 165 W/m2
14:54 64 °F /  17.8 °C 59 °F /  15 °C 29.76in /  1007.7hPa WSW 5.8mph /  9.3km/h 11mph /  17.7km/h 81% 0.00in /  0mm 105 W/m2
14:59 64 °F /  17.8 °C 59 °F /  15 °C 29.76in /  1007.7hPa SW 6.2mph /  10km/h 11mph /  17.7km/h 81% 0.00in /  0mm 95 W/m2
15:04 63.9 °F /  17.7 °C 58.8 °F /  14.9 °C 29.76in /  1007.7hPa SW 6.3mph /  10.1km/h 14mph /  22.5km/h 81% 0.00in /  0mm 81 W/m2
15:09 63.7 °F /  17.6 °C 58.6 °F /  14.8 °C 29.76in /  1007.7hPa SW 5.7mph /  9.2km/h 14mph /  22.5km/h 81% 0.00in /  0mm 98 W/m2
15:14 63.7 °F /  17.6 °C 59 °F /  15 °C 29.76in /  1007.7hPa WSW 5.3mph /  8.5km/h 7mph /  11.3km/h 82% 0.00in /  0mm 95 W/m2
15:19 63.7 °F /  17.6 °C 59 °F /  15 °C 29.75in /  1007.3hPa WSW 4mph /  6.4km/h 12mph /  19.3km/h 82% 0.00in /  0mm 53 W/m2
15:24 63.5 °F /  17.5 °C 58.8 °F /  14.9 °C 29.75in /  1007.3hPa SW 7.8mph /  12.6km/h 12mph /  19.3km/h 82% 0.00in /  0mm 67 W/m2
15:29 63.2 °F /  17.3 °C 58.7 °F /  14.8 °C 29.75in /  1007.3hPa SW 6.7mph /  10.8km/h 14mph /  22.5km/h 82.4% 0.00in /  0mm 98 W/m2
15:34 63.2 °F /  17.3 °C 58.9 °F /  14.9 °C 29.75in /  1007.3hPa SW 6.4mph /  10.3km/h 11mph /  17.7km/h 83% 0.00in /  0mm 123 W/m2
15:39 63.3 °F /  17.4 °C 59 °F /  15 °C 29.75in /  1007.3hPa West 6.6mph /  10.6km/h 11mph /  17.7km/h 83% 0.00in /  0mm 86 W/m2
15:44 63.3 °F /  17.4 °C 58.8 °F /  14.9 °C 29.75in /  1007.3hPa WSW 7.4mph /  11.9km/h 14mph /  22.5km/h 82.4% 0.00in /  0mm 63 W/m2
15:49 63.3 °F /  17.4 °C 58.6 °F /  14.8 °C 29.75in /  1007.3hPa WSW 7.4mph /  11.9km/h 11mph /  17.7km/h 82% 0.00in /  0mm 74 W/m2
15:54 63.3 °F /  17.4 °C 58.6 °F /  14.8 °C 29.74in /  1007hPa WSW 3.3mph /  5.3km/h 11mph /  17.7km/h 82% 0.00in /  0mm 53 W/m2
15:59 63.3 °F /  17.4 °C 58.6 °F /  14.8 °C 29.74in /  1007hPa WSW 3.8mph /  6.1km/h 6mph /  9.7km/h 82% 0.00in /  0mm 35 W/m2
16:04 63.3 °F /  17.4 °C 58.6 °F /  14.8 °C 29.74in /  1007hPa West 3.3mph /  5.3km/h 9mph /  14.5km/h 82% 0.00in /  0mm 30 W/m2
16:09 63.3 °F /  17.4 °C 58.6 °F /  14.8 °C 29.73in /  1006.7hPa West 2.9mph /  4.7km/h 6mph /  9.7km/h 82% 0.00in /  0mm 30 W/m2
16:13 63.3 °F /  17.4 °C 58.9 °F /  14.9 °C 29.73in /  1006.7hPa WSW 2.7mph /  4.3km/h 6mph /  9.7km/h 82.8% 0.00in /  0mm 69 W/m2
16:19 63.3 °F /  17.4 °C 59 °F /  15 °C 29.73in /  1006.7hPa West 3.3mph /  5.3km/h 5mph /  8km/h 83% 0.00in /  0mm 79 W/m2
16:24 63.3 °F /  17.4 °C 59 °F /  15 °C 29.73in /  1006.7hPa WSW 5.4mph /  8.7km/h 7mph /  11.3km/h 83% 0.00in /  0mm 56 W/m2
16:29 63.3 °F /  17.4 °C 59 °F /  15 °C 29.73in /  1006.7hPa WSW 5.5mph /  8.9km/h 9mph /  14.5km/h 83% 0.00in /  0mm 32 W/m2
16:34 63.2 °F /  17.3 °C 58.9 °F /  14.9 °C 29.72in /  1006.3hPa SW 3.6mph /  5.8km/h 8mph /  12.9km/h 83% 0.00in /  0mm 35 W/m2
16:39 63.3 °F /  17.4 °C 59 °F /  15 °C 29.72in /  1006.3hPa SW 4.4mph /  7.1km/h 7mph /  11.3km/h 83% 0.00in /  0mm 46 W/m2
16:44 63.2 °F /  17.3 °C 58.9 °F /  14.9 °C 29.72in /  1006.3hPa SW 5.1mph /  8.2km/h 9mph /  14.5km/h 83% 0.00in /  0mm 21 W/m2
16:49 63.1 °F /  17.3 °C 58.8 °F /  14.9 °C 29.72in /  1006.3hPa WSW 2.5mph /  4km/h 8mph /  12.9km/h 83% 0.00in /  0mm 25 W/m2
16:54 63.1 °F /  17.3 °C 58.8 °F /  14.9 °C 29.72in /  1006.3hPa WSW 2.1mph /  3.4km/h 6mph /  9.7km/h 83% 0.00in /  0mm 14 W/m2
16:59 63.1 °F /  17.3 °C 58.8 °F /  14.9 °C 29.72in /  1006.3hPa West 2.4mph /  3.9km/h 5mph /  8km/h 83% 0.00in /  0mm 19 W/m2
17:04 63.1 °F /  17.3 °C 58.8 °F /  14.9 °C 29.71in /  1006hPa West 2.7mph /  4.3km/h 5mph /  8km/h 83% 0.00in /  0mm 21 W/m2
17:09 63 °F /  17.2 °C 58.6 °F /  14.8 °C 29.71in /  1006hPa West 4.4mph /  7.1km/h 8mph /  12.9km/h 83% 0.00in /  0mm 25 W/m2
17:14 63 °F /  17.2 °C 58.9 °F /  14.9 °C 29.71in /  1006hPa West 3.3mph /  5.3km/h 6mph /  9.7km/h 83.8% 0.00in /  0mm 18 W/m2
17:19 63 °F /  17.2 °C 59 °F /  15 °C 29.71in /  1006hPa West 3.3mph /  5.3km/h 6mph /  9.7km/h 84% 0.00in /  0mm 14 W/m2
17:24 63 °F /  17.2 °C 59 °F /  15 °C 29.71in /  1006hPa WSW 3mph /  4.8km/h 6mph /  9.7km/h 84% 0.00in /  0mm 9 W/m2
17:29 62.8 °F /  17.1 °C 58.8 °F /  14.9 °C 29.71in /  1006hPa WNW 5.3mph /  8.5km/h 8mph /  12.9km/h 84% 0.00in /  0mm 7 W/m2
17:34 62.3 °F /  16.8 °C 58.4 °F /  14.7 °C 29.71in /  1006hPa WNW 4mph /  6.4km/h 7mph /  11.3km/h 84% 0.00in /  0mm 7 W/m2
17:39 62.2 °F /  16.8 °C 58.6 °F /  14.8 °C 29.71in /  1006hPa WSW 2.6mph /  4.2km/h 5mph /  8km/h 85% 0.00in /  0mm 12 W/m2
17:44 62.1 °F /  16.7 °C 58.5 °F /  14.7 °C 29.71in /  1006hPa West 3.3mph /  5.3km/h 5mph /  8km/h 85% 0.00in /  0mm 11 W/m2
17:49 62.1 °F /  16.7 °C 58.5 °F /  14.7 °C 29.71in /  1006hPa NW 4.6mph /  7.4km/h 9mph /  14.5km/h 85% 0.00in /  0mm 5 W/m2
17:54 61.9 °F /  16.6 °C 58.3 °F /  14.6 °C 29.71in /  1006hPa WNW 5.1mph /  8.2km/h 9mph /  14.5km/h 85% 0.00in /  0mm 9 W/m2
17:59 61.5 °F /  16.4 °C 57.9 °F /  14.4 °C 29.71in /  1006hPa WNW 2.9mph /  4.7km/h 8mph /  12.9km/h 85.2% 0.00in /  0mm 9 W/m2
18:04 61.3 °F /  16.3 °C 57.9 °F /  14.4 °C 29.71in /  1006hPa WNW 4.1mph /  6.6km/h 7mph /  11.3km/h 86% 0.00in /  0mm 7 W/m2
18:08 61.2 °F /  16.2 °C 57.7 °F /  14.3 °C 29.71in /  1006hPa WNW 2.7mph /  4.3km/h 7mph /  11.3km/h 86% 0.00in /  0mm 14 W/m2
18:14 61.2 °F /  16.2 °C 58.1 °F /  14.5 °C 29.71in /  1006hPa WNW 2mph /  3.2km/h 4mph /  6.4km/h 87% 0.00in /  0mm 14 W/m2
18:19 61 °F /  16.1 °C 57.9 °F /  14.4 °C 29.71in /  1006hPa WNW 1.7mph /  2.7km/h 4mph /  6.4km/h 87% 0.00in /  0mm 9 W/m2
18:24 60.9 °F /  16.1 °C 58.2 °F /  14.6 °C 29.71in /  1006hPa WNW 1.3mph /  2.1km/h 3mph /  4.8km/h 88% 0.00in /  0mm 5 W/m2
18:29 60.8 °F /  16 °C 58.1 °F /  14.5 °C 29.70in /  1005.6hPa WNW 1.2mph /  1.9km/h 3mph /  4.8km/h 88% 0.00in /  0mm 0 W/m2
18:34 60.6 °F /  15.9 °C 57.9 °F /  14.4 °C 29.70in /  1005.6hPa WNW 0.4mph /  0.6km/h 3mph /  4.8km/h 88% 0.00in /  0mm 7 W/m2
18:39 60.6 °F /  15.9 °C 57.9 °F /  14.4 °C 29.70in /  1005.6hPa WNW 1.7mph /  2.7km/h 3mph /  4.8km/h 88% 0.00in /  0mm 5 W/m2
18:44 60.5 °F /  15.8 °C 58.1 °F /  14.5 °C 29.70in /  1005.6hPa Calm   2mph /  3.2km/h 88.6% 0.00in /  0mm 0 W/m2
18:49 60.6 °F /  15.9 °C 58.3 °F /  14.6 °C 29.70in /  1005.6hPa WNW 0.2mph /  0.3km/h 2mph /  3.2km/h 89% 0.00in /  0mm 0 W/m2
18:54 60.6 °F /  15.9 °C 58.3 °F /  14.6 °C 29.70in /  1005.6hPa WNW 0.2mph /  0.3km/h 2mph /  3.2km/h 89% 0.00in /  0mm 0 W/m2
18:59 60.4 °F /  15.8 °C 58.1 °F /  14.5 °C 29.70in /  1005.6hPa WNW 0.6mph /  1km/h 2mph /  3.2km/h 89% 0.00in /  0mm 0 W/m2
19:04 60.4 °F /  15.8 °C 58.1 °F /  14.5 °C 29.70in /  1005.6hPa WNW 1mph /  1.6km/h 3mph /  4.8km/h 89% 0.00in /  0mm 0 W/m2
19:09 60.3 °F /  15.7 °C 58.2 °F /  14.6 °C 29.70in /  1005.6hPa WNW 1.3mph /  2.1km/h 2mph /  3.2km/h 89.6% 0.00in /  0mm 0 W/m2
19:14 60.3 °F /  15.7 °C 58.3 °F /  14.6 °C 29.70in /  1005.6hPa Calm   2mph /  3.2km/h 90% 0.00in /  0mm 0 W/m2
19:19 60.3 °F /  15.7 °C 58.3 °F /  14.6 °C 29.70in /  1005.6hPa Calm     90% 0.00in /  0mm 0 W/m2
19:24 60.3 °F /  15.7 °C 58.3 °F /  14.6 °C 29.70in /  1005.6hPa Calm     90% 0.00in /  0mm 0 W/m2
19:29 60.3 °F /  15.7 °C 58.3 °F /  14.6 °C 29.70in /  1005.6hPa Calm     90% 0.00in /  0mm 0 W/m2
19:34 60.3 °F /  15.7 °C 58.3 °F /  14.6 °C 29.70in /  1005.6hPa Calm     90% 0.00in /  0mm 0 W/m2
19:39 60.3 °F /  15.7 °C 58.3 °F /  14.6 °C 29.70in /  1005.6hPa Calm   1mph /  1.6km/h 90% 0.00in /  0mm 0 W/m2
19:44 60.3 °F /  15.7 °C 58.3 °F /  14.6 °C 29.70in /  1005.6hPa Calm   1mph /  1.6km/h 90% 0.00in /  0mm 0 W/m2
19:49 60.3 °F /  15.7 °C 58.3 °F /  14.6 °C 29.70in /  1005.6hPa WNW 0.8mph /  1.3km/h 4mph /  6.4km/h 90% 0.00in /  0mm 0 W/m2
19:54 60.2 °F /  15.7 °C 58.2 °F /  14.6 °C 29.69in /  1005.3hPa WNW 0.8mph /  1.3km/h 4mph /  6.4km/h 90% 0.00in /  0mm 0 W/m2
19:59 60.3 °F /  15.7 °C 58.4 °F /  14.7 °C 29.69in /  1005.3hPa WNW 0.4mph /  0.6km/h 3mph /  4.8km/h 90.8% 0.00in /  0mm 0 W/m2
20:04 60.2 °F /  15.7 °C 58.4 °F /  14.7 °C 29.69in /  1005.3hPa WNW 1.8mph /  2.9km/h 4mph /  6.4km/h 91% 0.00in /  0mm 0 W/m2
20:09 60.1 °F /  15.6 °C 58.3 °F /  14.6 °C 29.70in /  1005.6hPa WNW 0.9mph /  1.4km/h 3mph /  4.8km/h 91% 0.00in /  0mm 0 W/m2
20:14 60.3 °F /  15.7 °C 58.5 °F /  14.7 °C 29.69in /  1005.3hPa WNW 1.2mph /  1.9km/h 3mph /  4.8km/h 91% 0.00in /  0mm 0 W/m2
20:19 60.3 °F /  15.7 °C 58.5 °F /  14.7 °C 29.69in /  1005.3hPa WNW 0.4mph /  0.6km/h 3mph /  4.8km/h 91% 0.00in /  0mm 0 W/m2
20:24 60.3 °F /  15.7 °C 58.5 °F /  14.7 °C 29.70in /  1005.6hPa WNW 1.8mph /  2.9km/h 4mph /  6.4km/h 91% 0.00in /  0mm 0 W/m2
20:28 60.3 °F /  15.7 °C 58.5 °F /  14.7 °C 29.69in /  1005.3hPa WNW 0.2mph /  0.3km/h 2mph /  3.2km/h 91% 0.00in /  0mm 0 W/m2
20:34 60.3 °F /  15.7 °C 58.5 °F /  14.7 °C 29.69in /  1005.3hPa WNW 0.2mph /  0.3km/h 2mph /  3.2km/h 91% 0.01in /  0.25mm 0 W/m2
20:39 60.3 °F /  15.7 °C 58.5 °F /  14.7 °C 29.69in /  1005.3hPa WNW 0.2mph /  0.3km/h 2mph /  3.2km/h 91% 0.01in /  0.25mm 0 W/m2
20:44 60.2 °F /  15.7 °C 58.4 °F /  14.7 °C 29.69in /  1005.3hPa WNW 0.4mph /  0.6km/h 1mph /  1.6km/h 91% 0.01in /  0.25mm 0 W/m2
20:49 60.3 °F /  15.7 °C 58.5 °F /  14.7 °C 29.69in /  1005.3hPa Calm   1mph /  1.6km/h 91% 0.01in /  0.25mm 0 W/m2
20:54 60.3 °F /  15.7 °C 58.5 °F /  14.7 °C 29.69in /  1005.3hPa Calm   1mph /  1.6km/h 91% 0.01in /  0.25mm 0 W/m2
20:59 60.3 °F /  15.7 °C 58.5 °F /  14.7 °C 29.69in /  1005.3hPa WNW 0.2mph /  0.3km/h 1mph /  1.6km/h 91% 0.01in /  0.25mm 0 W/m2
21:04 60.1 °F /  15.6 °C 58.3 °F /  14.6 °C 29.69in /  1005.3hPa WNW 1.6mph /  2.6km/h 3mph /  4.8km/h 91% 0.01in /  0.25mm 0 W/m2
21:09 60.1 °F /  15.6 °C 58.3 °F /  14.6 °C 29.69in /  1005.3hPa WNW 0.4mph /  0.6km/h 3mph /  4.8km/h 91% 0.01in /  0.25mm 0 W/m2
21:14 60.1 °F /  15.6 °C 58.3 °F /  14.6 °C 29.69in /  1005.3hPa WNW 0.6mph /  1km/h 2mph /  3.2km/h 91% 0.01in /  0.25mm 0 W/m2
21:19 60.1 °F /  15.6 °C 58.3 °F /  14.6 °C 29.69in /  1005.3hPa WNW 0.4mph /  0.6km/h 2mph /  3.2km/h 91% 0.01in /  0.25mm 0 W/m2
21:24 60.1 °F /  15.6 °C 58.4 °F /  14.7 °C 29.69in /  1005.3hPa Calm   1mph /  1.6km/h 91.4% 0.01in /  0.25mm 0 W/m2
21:29 60 °F /  15.6 °C 58.5 °F /  14.7 °C 29.68in /  1005hPa Calm     92% 0.01in /  0.25mm 0 W/m2
21:34 60 °F /  15.6 °C 58.2 °F /  14.6 °C 29.68in /  1005hPa Calm     91.3% 0.00in /  0mm 0 W/m2
21:39 59.9 °F /  15.5 °C 58.4 °F /  14.7 °C 29.68in /  1005hPa Calm     91.8% 0.00in /  0mm 0 W/m2
21:44 59.8 °F /  15.4 °C 58.4 °F /  14.7 °C 29.68in /  1005hPa Calm     92% 0.00in /  0mm 0 W/m2
21:49 59.7 °F /  15.4 °C 58.3 °F /  14.6 °C 29.68in /  1005hPa Calm   2mph /  3.2km/h 92% 0.00in /  0mm 0 W/m2
21:54 59.7 °F /  15.4 °C 58.3 °F /  14.6 °C 29.68in /  1005hPa Calm     92% 0.00in /  0mm 0 W/m2
22:04 59.5 °F /  15.3 °C 58.1 °F /  14.5 °C 29.67in /  1004.6hPa WNW 0.2mph /  0.3km/h 2mph /  3.2km/h 92% 0.00in /  0mm 0 W/m2
22:09 59.5 °F /  15.3 °C 58.1 °F /  14.5 °C 29.67in /  1004.6hPa Calm     92% 0.00in /  0mm 0 W/m2
22:14 59.5 °F /  15.3 °C 58.1 °F /  14.5 °C 29.67in /  1004.6hPa Calm     92% 0.00in /  0mm 0 W/m2
22:19 59.4 °F /  15.2 °C 57.9 °F /  14.4 °C 29.66in /  1004.3hPa Calm     92% 0.00in /  0mm 0 W/m2
22:24 59.4 °F /  15.2 °C 57.9 °F /  14.4 °C 29.66in /  1004.3hPa Calm     92% 0.00in /  0mm 0 W/m2
22:29 59.4 °F /  15.2 °C 57.9 °F /  14.4 °C 29.66in /  1004.3hPa Calm     92% 0.00in /  0mm 0 W/m2
22:34 59.2 °F /  15.1 °C 57.7 °F /  14.3 °C 29.66in /  1004.3hPa WNW 0.8mph /  1.3km/h 2mph /  3.2km/h 92% 0.00in /  0mm 0 W/m2
22:39 59.2 °F /  15.1 °C 57.7 °F /  14.3 °C 29.66in /  1004.3hPa WNW 0.4mph /  0.6km/h 3mph /  4.8km/h 92% 0.00in /  0mm 0 W/m2
22:44 59.2 °F /  15.1 °C 57.7 °F /  14.3 °C 29.66in /  1004.3hPa WNW 0.6mph /  1km/h 3mph /  4.8km/h 92% 0.00in /  0mm 0 W/m2
22:49 59.2 °F /  15.1 °C 57.7 °F /  14.3 °C 29.66in /  1004.3hPa WNW 1.3mph /  2.1km/h 4mph /  6.4km/h 92% 0.00in /  0mm 0 W/m2
22:54 59.2 °F /  15.1 °C 57.7 °F /  14.3 °C 29.66in /  1004.3hPa WNW 1.6mph /  2.6km/h 3mph /  4.8km/h 92% 0.00in /  0mm 0 W/m2
22:59 59.2 °F /  15.1 °C 57.7 °F /  14.3 °C 29.66in /  1004.3hPa WNW 1.7mph /  2.7km/h 5mph /  8km/h 92% 0.00in /  0mm 0 W/m2
23:04 59.3 °F /  15.2 °C 57.8 °F /  14.3 °C 29.66in /  1004.3hPa WNW 0.4mph /  0.6km/h 3mph /  4.8km/h 92% 0.00in /  0mm 0 W/m2
23:09 59.4 °F /  15.2 °C 57.9 °F /  14.4 °C 29.65in /  1003.9hPa WNW 0.2mph /  0.3km/h 3mph /  4.8km/h 92% 0.00in /  0mm 0 W/m2
23:14 59.4 °F /  15.2 °C 57.9 °F /  14.4 °C 29.65in /  1003.9hPa WNW 0.4mph /  0.6km/h 2mph /  3.2km/h 92% 0.00in /  0mm 0 W/m2
23:19 59.4 °F /  15.2 °C 57.9 °F /  14.4 °C 29.65in /  1003.9hPa WNW 0.7mph /  1.1km/h 3mph /  4.8km/h 92% 0.00in /  0mm 0 W/m2
23:24 59.4 °F /  15.2 °C 57.9 °F /  14.4 °C 29.65in /  1003.9hPa WNW 0.6mph /  1km/h 2mph /  3.2km/h 92% 0.00in /  0mm 0 W/m2
23:29 59.4 °F /  15.2 °C 57.9 °F /  14.4 °C 29.65in /  1003.9hPa WNW 0.6mph /  1km/h 3mph /  4.8km/h 92% 0.00in /  0mm 0 W/m2
23:34 59.4 °F /  15.2 °C 57.9 °F /  14.4 °C 29.65in /  1003.9hPa Calm   2mph /  3.2km/h 92% 0.00in /  0mm 0 W/m2
23:39 59.4 °F /  15.2 °C 57.9 °F /  14.4 °C 29.65in /  1003.9hPa WNW 1.2mph /  1.9km/h 3mph /  4.8km/h 92% 0.00in /  0mm 0 W/m2
23:44 59.4 °F /  15.2 °C 58 °F /  14.4 °C 29.65in /  1003.9hPa WNW 0.5mph /  0.8km/h 3mph /  4.8km/h 92% 0.00in /  0mm 0 W/m2
23:49 59.5 °F /  15.3 °C 58.1 °F /  14.5 °C 29.64in /  1003.6hPa WNW 0.8mph /  1.3km/h 3mph /  4.8km/h 92% 0.00in /  0mm 0 W/m2
23:54 59.5 °F /  15.3 °C 58.1 °F /  14.5 °C 29.64in /  1003.6hPa WNW 0.4mph /  0.6km/h 3mph /  4.8km/h 92% 0.00in /  0mm 0 W/m2
23:59 59.5 °F /  15.3 °C 58.1 °F /  14.5 °C 29.64in /  1003.6hPa WNW 0.5mph /  0.8km/h 3mph /  4.8km/h 92% 0.00in /  0mm 0 W/m2
Bath Spa Weather
Compliments of Weather Underground - 2 mb